Time;durP1;ratioP1;P1;durP2;ratioP2;P2;SDS_P1;SDS_P2;PMS_P1;PMS_P2;Temp;Humidity;BMP_temperature;BMP_pressure;BME280_temperature;BME280_humidity;BME280_pressure;Samples;Min_cycle;Max_cycle;Signal;HPM_P1;HPM_P2
2022/10/05 03:57:46;;;;;;;10.55;4.80;;;;;;;9.55;77.32;101610.81;5607123;31;77833;-55
2022/10/05 04:00:55;;;;;;;6.32;4.72;;;;;;;9.55;77.32;101610.81;5583753;31;33338;-55
2022/10/05 04:04:03;;;;;;;6.75;5.05;;;;;;;9.11;78.69;101629.31;5582320;31;34422;-54
2022/10/05 04:07:10;;;;;;;8.20;4.57;;;;;;;9.11;78.53;101615.94;5583861;31;33138;-55
2022/10/05 04:10:48;;;;;;;10.15;5.62;;;;;;;9.14;78.47;101618.16;5583981;31;33540;-55
2022/10/05 04:13:59;;;;;;;10.18;5.37;;;;;;;9.17;77.93;101613.13;5581336;32;34337;-56
2022/10/05 04:17:08;;;;;;;8.15;5.37;;;;;;;9.16;78.23;101618.69;5583956;32;33543;-55
2022/10/05 04:20:21;;;;;;;9.20;5.07;;;;;;;9.14;78.08;101629.66;5584033;31;34101;-54
2022/10/05 04:23:49;;;;;;;9.38;5.50;;;;;;;9.15;78.35;101617.88;5583498;32;33704;-55
2022/10/05 04:26:56;;;;;;;8.93;4.85;;;;;;;9.20;77.65;101625.19;5582740;31;34357;-56
2022/10/05 04:30:08;;;;;;;9.30;5.43;;;;;;;9.23;77.22;101627.38;5563870;32;33736;-55
2022/10/05 04:33:12;;;;;;;10.55;4.60;;;;;;;9.25;77.31;101621.81;5564003;32;33234;-55
2022/10/05 04:36:23;;;;;;;7.45;5.10;;;;;;;9.31;76.96;101627.00;5564101;32;34067;-55
2022/10/05 04:39:52;;;;;;;10.15;4.90;;;;;;;9.19;77.04;101628.91;5563907;32;33387;-55
2022/10/05 04:43:16;;;;;;;7.85;4.65;;;;;;;9.17;77.40;101626.50;5564042;32;33858;-55
2022/10/05 04:46:57;;;;;;;7.18;4.93;;;;;;;9.05;77.65;101622.25;5563572;32;34199;-55
2022/10/05 04:50:19;;;;;;;11.65;4.93;;;;;;;9.11;77.65;101629.31;5563818;32;33777;-55
2022/10/05 04:53:36;;;;;;;7.93;5.10;;;;;;;8.94;77.69;101634.63;5579600;31;34366;-55
2022/10/05 04:56:50;;;;;;;12.48;5.55;;;;;;;9.17;77.28;101631.00;5579853;32;33889;-55
2022/10/05 04:59:58;;;;;;;7.32;4.90;;;;;;;9.08;77.74;101637.81;5582662;31;33711;-55
2022/10/05 05:03:38;;;;;;;8.50;5.00;;;;;;;9.04;78.25;101629.47;5583031;32;33196;-55
2022/10/05 05:07:04;;;;;;;9.18;4.85;;;;;;;9.20;77.30;101613.69;5579568;32;34384;-54
2022/10/05 05:10:31;;;;;;;13.15;5.20;;;;;;;9.30;77.10;101622.69;5569156;31;33386;-55
2022/10/05 05:13:52;;;;;;;12.37;5.10;;;;;;;9.18;77.94;101632.66;5565285;31;33288;-55
2022/10/05 05:17:13;;;;;;;8.60;5.93;;;;;;;9.10;78.77;101619.66;5565256;32;34353;-56
2022/10/05 05:20:58;;;;;;;12.23;5.70;;;;;;;9.29;78.56;101622.94;5566821;31;33330;-55
2022/10/05 05:24:19;;;;;;;23.73;6.85;;;;;;;9.45;77.65;101624.81;5564152;32;34398;-55
2022/10/05 05:27:24;;;;;;;9.32;5.53;;;;;;;9.39;77.96;101629.28;5568889;32;33735;-55
2022/10/05 05:30:42;;;;;;;11.93;5.30;;;;;;;9.36;78.08;101629.75;5565427;31;33286;-55
2022/10/05 05:33:47;;;;;;;17.12;6.30;;;;;;;9.40;78.24;101633.59;5566414;32;33369;-55
2022/10/05 05:37:03;;;;;;;12.70;5.50;;;;;;;9.49;77.71;101630.50;5567217;31;33482;-55
2022/10/05 05:40:17;;;;;;;19.62;5.60;;;;;;;9.50;77.86;101632.12;5568201;31;34470;-55
2022/10/05 05:43:34;;;;;;;27.75;6.70;;;;;;;9.67;77.21;101632.97;5567575;32;33794;-55
2022/10/05 05:46:40;;;;;;;13.95;6.15;;;;;;;9.64;78.13;101644.16;5567412;31;32686;-55
2022/10/05 05:50:09;;;;;;;16.55;6.93;;;;;;;9.67;77.89;101651.72;5569118;32;34392;-55
2022/10/05 05:53:30;;;;;;;11.43;6.35;;;;;;;9.84;77.50;101659.75;5567456;32;33439;-54
2022/10/05 05:56:43;;;;;;;16.58;6.78;;;;;;;10.11;76.37;101655.34;5566815;32;33612;-54
2022/10/05 05:59:59;;;;;;;13.05;6.22;;;;;;;10.08;76.55;101663.06;5567638;31;34575;-56
2022/10/05 06:03:17;;;;;;;11.55;6.05;;;;;;;10.04;77.96;101672.66;5563086;32;31931;-55
2022/10/05 06:06:25;;;;;;;14.75;6.37;;;;;;;10.09;78.14;101675.38;5554777;31;33363;-55
2022/10/05 06:09:36;;;;;;;15.63;6.35;;;;;;;10.32;76.29;101669.06;5549629;32;34567;-55
2022/10/05 06:12:47;;;;;;;16.77;6.65;;;;;;;10.38;76.67;101683.34;5565226;32;33632;-55
2022/10/05 06:15:56;;;;;;;13.40;6.40;;;;;;;10.36;77.54;101691.63;5566976;31;33524;-55
2022/10/05 06:19:21;;;;;;;14.13;6.87;;;;;;;10.18;78.95;101700.72;5567469;32;33355;-55
2022/10/05 06:22:37;;;;;;;17.60;6.65;;;;;;;10.26;79.46;101704.87;5563364;32;34080;-55
2022/10/05 06:26:02;;;;;;;16.30;5.93;;;;;;;10.39;79.37;101717.13;5560705;32;33599;-54
2022/10/05 06:29:18;;;;;;;15.73;6.68;;;;;;;10.54;79.34;101730.75;5568639;31;34327;-55
2022/10/05 06:32:40;;;;;;;15.07;6.75;;;;;;;10.50;79.89;101737.69;5567386;31;33246;-55
2022/10/05 06:35:53;;;;;;;13.35;7.07;;;;;;;10.53;80.34;101729.97;5565728;32;33622;-55
2022/10/05 06:39:30;;;;;;;17.65;7.03;;;;;;;10.67;80.24;101719.69;5567389;31;31876;-55
2022/10/05 06:43:04;;;;;;;15.05;6.78;;;;;;;10.66;81.16;101726.13;5565907;32;33502;-55
2022/10/05 06:46:25;;;;;;;17.55;6.97;;;;;;;10.85;82.12;101736.53;5566437;31;33381;-55
2022/10/05 06:49:52;;;;;;;14.93;7.32;;;;;;;11.05;81.32;101737.59;5567514;32;32823;-55
2022/10/05 06:53:13;;;;;;;16.12;7.47;;;;;;;11.19;81.37;101726.47;5568274;32;33595;-55
2022/10/05 06:56:24;;;;;;;18.55;8.35;;;;;;;11.29;80.97;101737.31;5561898;32;33646;-54
2022/10/05 06:59:45;;;;;;;18.10;8.25;;;;;;;11.56;77.56;101740.06;5565755;32;34400;-56
2022/10/05 07:02:53;;;;;;;15.68;8.23;;;;;;;11.66;76.76;101742.84;5548823;32;34096;-55
2022/10/05 07:06:49;;;;;;;21.75;9.00;;;;;;;11.88;77.53;101750.84;5556704;32;33129;-55
2022/10/05 07:10:21;;;;;;;16.75;8.98;;;;;;;11.92;75.89;101754.66;5565118;32;33360;-55
2022/10/05 07:13:44;;;;;;;18.37;8.82;;;;;;;11.96;76.37;101757.66;5566974;32;34217;-56
2022/10/05 07:17:06;;;;;;;21.77;9.75;;;;;;;12.04;78.28;101759.06;5567188;32;34587;-55
2022/10/05 07:20:14;;;;;;;20.27;9.52;;;;;;;12.32;76.21;101766.00;5568411;32;33590;-55
2022/10/05 07:23:31;;;;;;;18.08;10.25;;;;;;;12.47;75.58;101758.03;5567557;31;34346;-55
2022/10/05 07:26:53;;;;;;;23.73;11.30;;;;;;;12.52;75.17;101744.63;5565201;31;33212;-55
2022/10/05 07:29:59;;;;;;;20.30;10.27;;;;;;;12.59;76.12;101744.41;5560062;32;32988;-56
2022/10/05 07:33:16;;;;;;;30.58;12.80;;;;;;;12.56;75.86;101756.47;5563326;32;33177;-56
2022/10/05 07:40:28;;;;;;;38.65;11.27;;;;;;;12.87;74.34;101770.09;5565908;32;33393;-55
2022/10/05 07:43:56;;;;;;;25.55;9.35;;;;;;;12.99;73.64;101762.63;5565878;32;33656;-55
2022/10/05 07:47:16;;;;;;;15.27;10.60;;;;;;;12.98;74.75;101760.19;5552916;32;34151;-56
2022/10/05 07:50:28;;;;;;;23.38;10.88;;;;;;;12.89;74.11;101752.63;5566475;32;33764;-55
2022/10/05 07:53:43;;;;;;;132.45;17.52;;;;;;;13.07;74.42;101756.72;5565426;31;33258;-55
2022/10/05 07:57:17;;;;;;;39.45;13.55;;;;;;;13.24;74.19;101758.41;5558202;32;34524;-56
2022/10/05 08:00:22;;;;;;;18.50;11.70;;;;;;;13.22;75.15;101753.31;5563375;31;34429;-56
2022/10/05 08:03:57;;;;;;;137.55;24.02;;;;;;;13.31;73.92;101767.91;5554506;32;33460;-56
2022/10/05 08:07:04;;;;;;;24.27;13.80;;;;;;;13.31;74.53;101773.31;5549505;32;33345;-55
2022/10/05 08:10:17;;;;;;;18.60;11.82;;;;;;;13.45;73.40;101770.91;5562333;31;33553;-55
2022/10/05 08:13:34;;;;;;;21.05;11.38;;;;;;;13.63;71.60;101777.69;5566075;32;34915;-55
2022/10/05 08:16:37;;;;;;;21.25;11.65;;;;;;;13.72;71.79;101768.00;5561664;32;33362;-56
2022/10/05 08:19:49;;;;;;;21.73;11.23;;;;;;;13.82;70.04;101759.94;5564262;32;33298;-55
2022/10/05 08:23:17;;;;;;;22.95;10.73;;;;;;;13.74;71.99;101756.94;5560709;32;33105;-56
2022/10/05 08:26:29;;;;;;;20.52;12.15;;;;;;;13.70;72.29;101753.16;5563732;32;33925;-55
2022/10/05 08:29:54;;;;;;;23.48;15.32;;;;;;;13.78;72.88;101741.87;5558174;32;33650;-56
2022/10/05 08:33:12;;;;;;;24.25;14.98;;;;;;;14.05;71.03;101736.22;5557052;32;33834;-55
2022/10/05 08:36:22;;;;;;;23.90;14.35;;;;;;;13.98;72.43;101736.50;5557070;32;33590;-56
2022/10/05 08:39:35;;;;;;;22.08;15.02;;;;;;;14.16;72.57;101734.31;5558410;32;33740;-55
2022/10/05 08:42:57;;;;;;;19.60;14.70;;;;;;;14.17;71.97;101746.72;5562925;32;33589;-55
2022/10/05 08:46:30;;;;;;;21.95;14.38;;;;;;;14.45;70.28;101738.06;5567053;32;33947;-56
2022/10/05 08:50:03;;;;;;;18.73;12.77;;;;;;;14.55;70.54;101724.56;5562749;32;34383;-55
2022/10/05 08:53:27;;;;;;;16.73;13.00;;;;;;;14.71;70.42;101714.56;5566356;32;34250;-56
2022/10/05 08:56:54;;;;;;;18.05;11.95;;;;;;;14.75;69.63;101726.41;5560505;32;33073;-55
2022/10/05 09:00:22;;;;;;;161.52;19.77;;;;;;;14.89;69.44;101726.62;5564352;32;34182;-55
2022/10/05 09:04:00;;;;;;;22.85;12.90;;;;;;;14.95;69.80;101722.03;5561914;32;33698;-55
2022/10/05 09:07:33;;;;;;;29.35;12.25;;;;;;;14.87;69.92;101734.22;5562457;32;33724;-55
2022/10/05 09:10:58;;;;;;;56.30;13.93;;;;;;;14.80;70.40;101733.66;5566475;32;34259;-56
2022/10/05 09:14:25;;;;;;;18.23;12.10;;;;;;;14.77;70.58;101743.16;5560870;32;33721;-55
2022/10/05 09:17:42;;;;;;;22.02;12.55;;;;;;;14.83;70.94;101740.41;5564900;32;33625;-56
2022/10/05 09:20:54;;;;;;;14.65;10.73;;;;;;;14.88;71.29;101748.50;5568121;32;34377;-55
2022/10/05 09:24:12;;;;;;;19.92;10.57;;;;;;;15.06;70.23;101755.19;5566560;32;33486;-55
2022/10/05 09:27:18;;;;;;;15.82;10.32;;;;;;;15.08;70.14;101750.31;5564671;32;33357;-55
2022/10/05 09:31:02;;;;;;;18.33;9.60;;;;;;;15.21;68.94;101755.94;5568434;32;33851;-55
2022/10/05 09:34:29;;;;;;;14.02;8.40;;;;;;;15.32;68.62;101753.97;5563236;32;33753;-56
2022/10/05 09:37:52;;;;;;;14.98;9.82;;;;;;;15.36;67.43;101751.53;5565548;32;34438;-56
2022/10/05 09:41:13;;;;;;;19.05;10.23;;;;;;;15.44;68.45;101751.75;5561688;32;34023;-55
2022/10/05 09:44:53;;;;;;;15.35;10.25;;;;;;;15.49;68.86;101750.91;5566182;32;33865;-55
2022/10/05 09:48:37;;;;;;;13.57;9.40;;;;;;;15.63;67.99;101754.63;5563740;32;33791;-55
2022/10/05 09:52:19;;;;;;;15.35;10.13;;;;;;;15.68;68.84;101754.59;5553093;32;33657;-56
2022/10/05 09:55:43;;;;;;;15.57;9.65;;;;;;;15.85;66.91;101745.28;5549132;32;34334;-55
2022/10/05 09:59:17;;;;;;;15.40;9.50;;;;;;;15.88;67.45;101737.41;5556269;32;33893;-55
2022/10/05 10:02:31;;;;;;;16.67;10.07;;;;;;;15.95;66.59;101742.50;5567862;32;33689;-55
2022/10/05 10:06:09;;;;;;;15.15;9.82;;;;;;;15.98;66.24;101737.34;5566185;32;34357;-56
2022/10/05 10:09:26;;;;;;;16.87;9.80;;;;;;;16.01;65.36;101735.97;5568577;32;33652;-55
2022/10/05 10:13:01;;;;;;;15.90;9.63;;;;;;;15.97;65.53;101740.34;5565449;32;33658;-56
2022/10/05 10:16:22;;;;;;;14.20;9.40;;;;;;;15.93;66.58;101740.09;5556718;32;33760;-55
2022/10/05 10:19:56;;;;;;;13.65;9.27;;;;;;;15.90;67.41;101745.28;5566618;32;33626;-55
2022/10/05 10:23:58;;;;;;;15.35;8.88;;;;;;;15.98;67.33;101740.03;5563454;32;34169;-56
2022/10/05 10:27:15;;;;;;;11.48;8.82;;;;;;;16.05;67.91;101741.63;5520904;32;33668;-56
2022/10/05 10:30:39;;;;;;;;;;;;;;;16.02;66.71;101732.16;5512127;32;33624;-55
2022/10/05 10:33:44;;;;;;;13.93;9.80;;;;;;;16.26;65.13;101739.53;5567930;32;34559;-55
2022/10/05 10:36:49;;;;;;;11.77;7.45;;;;;;;16.18;65.73;101746.38;5567382;32;34739;-56
2022/10/05 10:40:05;;;;;;;15.77;7.62;;;;;;;16.31;65.99;101747.63;5552978;32;31973;-55
2022/10/05 10:43:44;;;;;;;15.10;8.65;;;;;;;16.41;65.75;101734.78;5561725;32;33645;-56
2022/10/05 10:47:08;;;;;;;16.40;9.10;;;;;;;16.44;65.53;101733.41;5562848;32;33181;-55
2022/10/05 10:50:27;;;;;;;14.10;8.30;;;;;;;16.32;66.45;101731.06;5558563;32;34431;-55
2022/10/05 10:54:02;;;;;;;13.70;8.55;;;;;;;16.31;67.43;101742.19;5561625;32;34000;-56
2022/10/05 10:57:08;;;;;;;;;;;;;;;16.43;65.89;101738.03;5564918;32;34325;-55
2022/10/05 11:00:21;;;;;;;12.15;7.82;;;;;;;16.47;65.43;101729.34;5567347;32;34602;-56
2022/10/05 11:04:03;;;;;;;11.05;8.23;;;;;;;16.40;67.08;101732.38;5560170;32;34315;-56
2022/10/05 11:07:23;;;;;;;13.60;8.45;;;;;;;16.49;66.38;101736.06;5563819;32;33655;-56
2022/10/05 11:10:45;;;;;;;13.70;9.02;;;;;;;16.44;66.57;101739.63;5567153;32;34305;-55
2022/10/05 11:14:20;;;;;;;14.05;9.43;;;;;;;16.57;65.10;101738.13;5565950;32;34398;-55
2022/10/05 11:17:32;;;;;;;15.27;10.13;;;;;;;16.58;65.98;101733.53;5565504;32;33643;-55
2022/10/05 11:20:48;;;;;;;13.48;10.23;;;;;;;16.50;66.49;101726.84;5563951;32;33114;-55
2022/10/05 11:24:37;;;;;;;15.27;10.23;;;;;;;16.50;67.79;101726.84;5564126;31;33612;-56
2022/10/05 11:27:58;;;;;;;16.60;10.80;;;;;;;16.51;68.54;101719.53;5563385;31;33635;-56
2022/10/05 11:31:15;;;;;;;13.98;10.90;;;;;;;16.55;68.97;101723.28;5561328;32;33739;-56
2022/10/05 11:34:47;;;;;;;23.65;10.75;;;;;;;16.59;68.73;101721.63;5560968;32;33942;-56
2022/10/05 11:38:11;;;;;;;14.90;10.30;;;;;;;16.63;69.77;101712.63;5560768;32;33828;-56
2022/10/05 11:41:43;;;;;;;16.25;10.63;;;;;;;16.65;69.12;101709.62;5555873;32;33331;-56
2022/10/05 11:45:14;;;;;;;15.38;10.07;;;;;;;16.72;68.83;101704.69;5555480;31;33166;-56
2022/10/05 11:48:29;;;;;;;13.48;9.30;;;;;;;16.81;69.16;101697.53;5563803;32;33588;-55
2022/10/05 11:51:44;;;;;;;15.93;9.60;;;;;;;16.80;68.38;101690.53;5563077;32;33620;-56
2022/10/05 11:54:57;;;;;;;15.50;9.23;;;;;;;16.80;68.57;101693.22;5564496;32;32295;-55
2022/10/05 11:58:24;;;;;;;13.73;8.45;;;;;;;16.81;68.63;101694.84;5563534;32;33716;-55
2022/10/05 12:01:45;;;;;;;13.77;8.50;;;;;;;16.93;68.06;101678.19;5567637;32;33713;-56
2022/10/05 12:04:53;;;;;;;16.58;8.60;;;;;;;17.10;66.69;101680.38;5563257;32;33172;-56
2022/10/05 12:08:02;;;;;;;13.52;7.68;;;;;;;17.14;67.09;101673.28;5566165;32;34371;-56
2022/10/05 12:11:31;;;;;;;14.57;7.93;;;;;;;17.23;66.62;101668.00;5565363;32;33841;-55
2022/10/05 12:15:17;;;;;;;13.35;7.57;;;;;;;17.32;65.75;101667.06;5539319;32;34245;-56
2022/10/05 12:18:29;;;;;;;13.30;6.97;;;;;;;17.41;64.60;101663.66;5563841;32;34054;-55
2022/10/05 12:21:55;;;;;;;11.20;7.15;;;;;;;17.29;65.95;101669.56;5565070;32;33742;-55
2022/10/05 12:25:03;;;;;;;13.60;7.18;;;;;;;17.33;65.97;101663.25;5563526;32;34371;-56
2022/10/05 12:28:11;;;;;;;9.10;6.28;;;;;;;17.35;66.37;101673.78;5568110;32;33743;-57
2022/10/05 12:31:45;;;;;;;10.68;6.70;;;;;;;17.46;63.48;101661.69;5557718;32;33333;-56
2022/10/05 12:35:15;;;;;;;12.65;6.30;;;;;;;17.46;61.97;101660.91;5559855;32;33704;-55
2022/10/05 12:38:44;;;;;;;8.75;5.60;;;;;;;17.47;63.42;101665.22;5562446;32;34438;-56
2022/10/05 12:41:59;;;;;;;11.02;5.72;;;;;;;17.52;61.94;101651.59;5560290;32;33718;-55
2022/10/05 12:45:22;;;;;;;9.25;5.40;;;;;;;17.47;63.28;101646.22;5567837;32;33468;-56
2022/10/05 12:48:30;;;;;;;8.95;4.93;;;;;;;17.56;62.00;101639.03;5569489;32;33340;-55
2022/10/05 12:51:51;;;;;;;11.88;5.80;;;;;;;17.59;62.90;101643.87;5568720;32;33388;-55
2022/10/05 12:55:10;;;;;;;7.07;4.10;;;;;;;17.54;62.33;101638.50;5563217;32;34335;-55
2022/10/05 12:58:20;;;;;;;6.68;3.25;;;;;;;17.60;59.90;101634.63;5561501;32;34395;-55
2022/10/05 13:01:48;;;;;;;7.68;3.20;;;;;;;17.55;60.36;101634.72;5569538;32;33671;-55
2022/10/05 13:05:20;;;;;;;5.72;3.00;;;;;;;17.53;60.19;101629.59;5569893;32;34445;-55
2022/10/05 13:08:49;;;;;;;7.35;3.25;;;;;;;17.56;60.86;101631.69;5570027;32;33363;-55
2022/10/05 13:11:56;;;;;;;4.20;3.10;;;;;;;17.74;58.69;101623.81;5567460;32;34402;-56
2022/10/05 13:15:15;;;;;;;4.90;2.70;;;;;;;17.67;58.60;101631.53;5568731;32;34344;-55
2022/10/05 13:18:37;;;;;;;6.35;2.83;;;;;;;17.55;59.31;101629.31;5568379;32;33532;-55
2022/10/05 13:21:48;;;;;;;20.27;4.15;;;;;;;17.49;59.76;101627.78;5568402;32;33948;-57
2022/10/05 13:25:12;;;;;;;12.60;2.70;;;;;;;17.45;59.26;101632.16;5550489;32;34449;-56
2022/10/05 13:28:35;;;;;;;18.60;3.37;;;;;;;17.46;60.62;101626.44;5552497;32;33993;-54
2022/10/05 13:31:49;;;;;;;19.45;3.35;;;;;;;17.45;59.56;101627.56;5569106;32;33720;-55
2022/10/05 13:35:02;;;;;;;6.45;2.60;;;;;;;17.53;59.22;101621.44;5566376;32;33946;-55
2022/10/05 13:38:25;;;;;;;6.97;3.25;;;;;;;17.60;58.58;101616.44;5561762;32;33737;-56
2022/10/05 13:41:27;;;;;;;8.45;2.80;;;;;;;17.61;58.28;101618.06;5566235;32;33857;-55
2022/10/05 13:44:41;;;;;;;18.60;3.15;;;;;;;17.63;58.83;101617.75;5568953;32;33666;-56
2022/10/05 13:48:18;;;;;;;7.72;3.03;;;;;;;17.68;58.63;101620.41;5569749;32;34113;-55
2022/10/05 13:51:27;;;;;;;15.07;3.72;;;;;;;17.69;58.66;101618.50;5555809;31;33537;-55
2022/10/05 13:55:05;;;;;;;9.38;3.55;;;;;;;17.71;59.29;101614.34;5569802;32;33779;-55
2022/10/05 13:58:32;;;;;;;11.77;3.78;;;;;;;17.66;59.90;101617.16;5569513;32;33559;-55
2022/10/05 14:01:46;;;;;;;15.25;4.10;;;;;;;17.65;61.05;101615.56;5561081;32;33672;-56
2022/10/05 14:05:00;;;;;;;17.45;10.95;;;;;;;17.66;62.05;101614.47;5569657;32;33683;-55
2022/10/05 14:08:03;;;;;;;10.10;5.25;;;;;;;17.65;61.47;101620.16;5569563;32;33654;-56
2022/10/05 14:11:25;;;;;;;15.98;6.50;;;;;;;17.62;61.02;101614.25;5568951;32;33605;-56
2022/10/05 14:14:48;;;;;;;29.33;7.25;;;;;;;17.66;61.30;101621.78;5568919;32;33879;-55
2022/10/05 14:17:51;;;;;;;32.60;7.78;;;;;;;17.70;60.18;101617.38;5569697;32;33637;-56
2022/10/05 14:21:15;;;;;;;14.27;6.00;;;;;;;17.72;60.59;101623.31;5568675;32;34334;-56
2022/10/05 14:24:26;;;;;;;19.98;12.63;;;;;;;17.68;61.74;101620.41;5568221;32;33718;-56
2022/10/05 14:27:53;;;;;;;9.07;7.35;;;;;;;17.70;60.62;101620.88;5569590;32;33669;-56
2022/10/05 14:31:02;;;;;;;14.70;10.05;;;;;;;17.73;60.40;101614.06;5569773;32;33639;-56
2022/10/05 14:34:23;;;;;;;10.25;5.93;;;;;;;17.74;61.30;101615.69;5568198;32;33135;-57
2022/10/05 14:37:56;;;;;;;14.90;7.40;;;;;;;17.71;61.73;101608.94;5549894;32;33599;-54
2022/10/05 14:41:26;;;;;;;13.93;6.40;;;;;;;17.71;62.41;101614.34;5558723;32;33754;-55
2022/10/05 14:44:31;;;;;;;33.35;21.02;;;;;;;17.71;60.94;101614.34;5567636;32;34370;-55
2022/10/05 14:47:58;;;;;;;54.13;35.28;;;;;;;17.73;60.47;101617.59;5569274;32;33675;-55
2022/10/05 14:51:02;;;;;;;54.70;15.57;;;;;;;17.66;63.37;101625.31;5568357;32;34402;-55
2022/10/05 14:54:19;;;;;;;15.43;9.68;;;;;;;17.66;62.25;101614.47;5569026;32;33359;-56
2022/10/05 14:57:36;;;;;;;21.77;7.15;;;;;;;17.67;62.64;101620.69;5567569;32;33466;-56
2022/10/05 15:01:09;;;;;;;9.98;5.22;;;;;;;17.65;63.48;101620.16;5569017;32;33741;-55
2022/10/05 15:04:24;;;;;;;9.98;6.62;;;;;;;17.64;60.53;101616.66;5564366;32;34207;-55
2022/10/05 15:07:39;;;;;;;10.35;6.60;;;;;;;17.63;60.19;101615.06;5567054;32;33673;-56
2022/10/05 15:10:49;;;;;;;8.48;6.45;;;;;;;17.56;60.66;101601.88;5567377;32;33667;-56
2022/10/05 15:13:53;;;;;;;11.18;6.43;;;;;;;17.49;60.50;101601.47;5556683;32;33675;-55
2022/10/05 15:17:19;;;;;;;25.15;17.15;;;;;;;17.44;62.04;101598.81;5569374;32;33764;-55
2022/10/05 15:20:33;;;;;;;19.15;13.38;;;;;;;17.41;62.35;101587.78;5569185;32;34061;-55
